Time;durP1;ratioP1;P1;durP2;ratioP2;P2;SDS_P1;SDS_P2;PMS_P1;PMS_P2;Temp;Humidity;BMP_temperature;BMP_pressure;BME280_temperature;BME280_humidity;BME280_pressure;Samples;Min_cycle;Max_cycle;Signal;HPM_P1;HPM_P2
2022/04/07 00:00:09;;;;;;;153.27;23.57;;;;;;;;;;5006209;28;20192;-54
2022/04/07 00:02:35;;;;;;;114.03;17.90;;;;;;;;;;5007971;28;20716;-53
2022/04/07 00:05:01;;;;;;;98.07;15.60;;;;;;;;;;5008016;28;20212;-53
2022/04/07 00:07:27;;;;;;;99.40;16.03;;;;;;;;;;5010435;28;20467;-53
2022/04/07 00:09:53;;;;;;;66.57;11.07;;;;;;;;;;5017050;28;20191;-53
2022/04/07 00:12:19;;;;;;;92.73;14.50;;;;;;;;;;5013288;28;20199;-54
2022/04/07 00:14:45;;;;;;;141.13;21.37;;;;;;;;;;5004711;28;20637;-53
2022/04/07 00:17:11;;;;;;;135.43;21.17;;;;;;;;;;5004244;28;20202;-54
2022/04/07 00:19:38;;;;;;;140.00;21.77;;;;;;;;;;5007575;28;20235;-54
2022/04/07 00:22:04;;;;;;;142.57;22.63;;;;;;;;;;5008223;28;20546;-53
2022/04/07 00:24:30;;;;;;;89.37;13.90;;;;;;;;;;5007416;28;20211;-54
2022/04/07 00:26:55;;;;;;;152.63;24.37;;;;;;;;;;5008276;28;20295;-53
2022/04/07 00:29:21;;;;;;;97.37;16.13;;;;;;;;;;5010843;28;20576;-53
2022/04/07 00:31:55;;;;;;;148.03;23.13;;;;;;;;;;5007441;28;20705;-53
2022/04/07 00:34:21;;;;;;;125.27;20.07;;;;;;;;;;4999966;28;20230;-52
2022/04/07 00:36:47;;;;;;;116.50;18.80;;;;;;;;;;5001683;28;20208;-52
2022/04/07 00:39:13;;;;;;;142.53;22.07;;;;;;;;;;5006076;28;20626;-53
2022/04/07 00:41:39;;;;;;;110.30;17.23;;;;;;;;;;5012165;28;20184;-53
2022/04/07 00:44:08;;;;;;;136.30;20.90;;;;;;;;;;5009715;28;20206;-53
2022/04/07 00:46:34;;;;;;;92.20;15.17;;;;;;;;;;5008226;28;20291;-54
2022/04/07 00:49:00;;;;;;;71.33;11.93;;;;;;;;;;5009038;28;20185;-53
2022/04/07 00:51:26;;;;;;;127.90;19.97;;;;;;;;;;5002881;28;20254;-53
2022/04/07 00:53:52;;;;;;;107.80;17.23;;;;;;;;;;5006507;28;20193;-53
2022/04/07 00:56:18;;;;;;;78.93;13.13;;;;;;;;;;5006042;28;20196;-53
2022/04/07 00:58:47;;;;;;;92.07;14.27;;;;;;;;;;5017835;28;20204;-53
2022/04/07 01:01:13;;;;;;;94.10;15.13;;;;;;;;;;5015659;28;20597;-54
2022/04/07 01:03:39;;;;;;;110.87;16.70;;;;;;;;;;5006361;28;20287;-53
2022/04/07 01:06:05;;;;;;;112.00;18.03;;;;;;;;;;4999660;28;20930;-53
2022/04/07 01:08:31;;;;;;;98.53;15.63;;;;;;;;;;5007193;28;20192;-53
2022/04/07 01:10:57;;;;;;;75.20;12.17;;;;;;;;;;5008762;28;20197;-54
2022/04/07 01:13:23;;;;;;;105.67;16.40;;;;;;;;;;5006302;28;20211;-52
2022/04/07 01:15:49;;;;;;;167.97;26.27;;;;;;;;;;5004225;28;20227;-53
2022/04/07 01:18:15;;;;;;;125.53;19.90;;;;;;;;;;4994215;28;20189;-54
2022/04/07 01:20:41;;;;;;;113.93;17.70;;;;;;;;;;4996549;28;20203;-53
2022/04/07 01:23:10;;;;;;;127.07;19.43;;;;;;;;;;4999876;28;20200;-53
2022/04/07 01:25:36;;;;;;;100.30;15.83;;;;;;;;;;5005589;28;20205;-53
2022/04/07 01:28:03;;;;;;;136.70;22.40;;;;;;;;;;4997842;28;21206;-52
2022/04/07 01:30:29;;;;;;;55.37;9.47;;;;;;;;;;5010550;28;20272;-53
2022/04/07 01:32:56;;;;;;;59.57;10.10;;;;;;;;;;5006978;28;20690;-53
2022/04/07 01:35:23;;;;;;;117.67;19.03;;;;;;;;;;5001331;28;20296;-53
2022/04/07 01:37:49;;;;;;;100.77;16.10;;;;;;;;;;5008612;28;20282;-54
2022/04/07 01:40:16;;;;;;;104.40;16.87;;;;;;;;;;5009737;28;20810;-53
2022/04/07 01:42:45;;;;;;;107.17;17.00;;;;;;;;;;5003810;28;20649;-53
2022/04/07 01:45:11;;;;;;;73.67;12.33;;;;;;;;;;5005215;28;20621;-52
2022/04/07 01:47:38;;;;;;;127.47;20.60;;;;;;;;;;5008030;28;20188;-53
2022/04/07 01:50:05;;;;;;;97.17;16.17;;;;;;;;;;5002287;28;20213;-53
2022/04/07 01:52:32;;;;;;;119.37;19.40;;;;;;;;;;5001475;28;20188;-53
2022/04/07 01:54:59;;;;;;;70.67;11.80;;;;;;;;;;5007671;28;20295;-53
2022/04/07 01:57:26;;;;;;;129.53;21.13;;;;;;;;;;4993445;28;20648;-53
2022/04/07 01:59:52;;;;;;;88.07;14.77;;;;;;;;;;5008816;28;20187;-53
2022/04/07 02:02:19;;;;;;;93.07;15.30;;;;;;;;;;5008282;28;20239;-53
2022/04/07 02:04:54;;;;;;;91.10;14.97;;;;;;;;;;5006664;28;20819;-54
2022/04/07 02:07:20;;;;;;;183.17;29.33;;;;;;;;;;5010573;28;20183;-53
2022/04/07 02:09:46;;;;;;;81.27;13.37;;;;;;;;;;5008007;28;20189;-53
2022/04/07 02:12:12;;;;;;;72.07;12.03;;;;;;;;;;5007756;28;20447;-53
2022/04/07 02:14:39;;;;;;;156.47;23.63;;;;;;;;;;5003822;28;20597;-53
2022/04/07 02:17:06;;;;;;;113.67;17.97;;;;;;;;;;5005955;28;20290;-53
2022/04/07 02:19:32;;;;;;;94.83;15.47;;;;;;;;;;5009121;28;20566;-53
2022/04/07 02:21:58;;;;;;;92.80;15.07;;;;;;;;;;5009415;28;20541;-53
2022/04/07 02:24:24;;;;;;;105.60;17.13;;;;;;;;;;5002981;28;20191;-53
2022/04/07 02:26:50;;;;;;;97.17;16.10;;;;;;;;;;5009418;28;20228;-53
2022/04/07 02:29:16;;;;;;;75.53;12.67;;;;;;;;;;5009694;28;20211;-52
2022/04/07 02:31:41;;;;;;;77.87;12.93;;;;;;;;;;5005633;28;20765;-53
2022/04/07 02:34:07;;;;;;;90.53;15.00;;;;;;;;;;5007315;28;20180;-53
2022/04/07 02:36:33;;;;;;;126.97;20.07;;;;;;;;;;5005345;28;20248;-54
2022/04/07 02:38:59;;;;;;;100.90;16.37;;;;;;;;;;5006656;28;20188;-52
2022/04/07 02:41:25;;;;;;;93.00;15.23;;;;;;;;;;5015138;28;20242;-53
2022/04/07 02:43:52;;;;;;;138.47;22.10;;;;;;;;;;5007160;28;20208;-54
2022/04/07 02:46:17;;;;;;;60.30;10.23;;;;;;;;;;5008619;28;20584;-53
2022/04/07 02:48:43;;;;;;;95.73;15.23;;;;;;;;;;5005222;28;20188;-53
2022/04/07 02:51:09;;;;;;;126.17;20.10;;;;;;;;;;5003912;28;20490;-53
2022/04/07 02:53:35;;;;;;;140.37;22.40;;;;;;;;;;5006428;28;20196;-53
2022/04/07 02:56:01;;;;;;;93.67;15.10;;;;;;;;;;5012595;28;20216;-53
2022/04/07 02:58:27;;;;;;;91.23;14.83;;;;;;;;;;5009851;28;20188;-53
2022/04/07 03:00:53;;;;;;;108.03;17.43;;;;;;;;;;5002036;28;20239;-53
2022/04/07 03:03:19;;;;;;;101.43;16.33;;;;;;;;;;5009684;28;20196;-53
2022/04/07 03:05:45;;;;;;;95.70;15.43;;;;;;;;;;5009126;28;20604;-53
2022/04/07 03:08:12;;;;;;;69.80;11.57;;;;;;;;;;5010152;28;20924;-53
2022/04/07 03:10:38;;;;;;;72.60;11.97;;;;;;;;;;5014443;28;20242;-53
2022/04/07 03:13:04;;;;;;;108.33;17.70;;;;;;;;;;5015117;28;20275;-53
2022/04/07 03:15:30;;;;;;;101.43;16.50;;;;;;;;;;5012644;28;20212;-53
2022/04/07 03:17:56;;;;;;;40.17;7.27;;;;;;;;;;5012755;28;20403;-53
2022/04/07 03:20:22;;;;;;;85.57;14.07;;;;;;;;;;5016260;28;20621;-53
2022/04/07 03:22:48;;;;;;;120.57;19.13;;;;;;;;;;5010459;28;20219;-53
2022/04/07 03:25:14;;;;;;;84.97;14.03;;;;;;;;;;5007697;28;20244;-54
2022/04/07 03:27:40;;;;;;;121.40;18.73;;;;;;;;;;5011200;28;20656;-53
2022/04/07 03:30:06;;;;;;;104.40;17.00;;;;;;;;;;5011034;28;20189;-53
2022/04/07 03:32:32;;;;;;;90.90;14.87;;;;;;;;;;5013073;28;20180;-53
2022/04/07 03:34:58;;;;;;;91.07;14.83;;;;;;;;;;5012248;28;20353;-54
2022/04/07 03:37:24;;;;;;;111.03;17.87;;;;;;;;;;5012213;28;20622;-53
2022/04/07 03:39:50;;;;;;;124.03;19.43;;;;;;;;;;5008094;28;20184;-54
2022/04/07 03:42:16;;;;;;;87.90;14.30;;;;;;;;;;5011799;28;20234;-53
2022/04/07 03:44:42;;;;;;;102.27;16.50;;;;;;;;;;5008625;28;20988;-53
2022/04/07 03:47:08;;;;;;;87.57;14.23;;;;;;;;;;5017192;28;20208;-53
2022/04/07 03:49:34;;;;;;;90.37;15.03;;;;;;;;;;5016034;28;20363;-53
2022/04/07 03:51:59;;;;;;;110.10;17.73;;;;;;;;;;5008488;28;20188;-53
2022/04/07 03:54:25;;;;;;;101.57;16.33;;;;;;;;;;5005415;28;20918;-53
2022/04/07 03:56:51;;;;;;;69.80;11.47;;;;;;;;;;5015403;28;20200;-53
2022/04/07 03:59:17;;;;;;;80.57;13.23;;;;;;;;;;5014307;28;20716;-53
2022/04/07 04:01:44;;;;;;;88.57;14.37;;;;;;;;;;5020933;28;20692;-53
2022/04/07 04:04:10;;;;;;;80.73;13.23;;;;;;;;;;5017939;28;20196;-53
2022/04/07 04:06:36;;;;;;;126.43;20.07;;;;;;;;;;5010199;28;20208;-53
2022/04/07 04:09:03;;;;;;;94.70;15.67;;;;;;;;;;5005341;28;20251;-53
2022/04/07 04:11:29;;;;;;;80.63;13.17;;;;;;;;;;5014636;28;20185;-52
2022/04/07 04:13:55;;;;;;;63.17;10.63;;;;;;;;;;5008232;28;20184;-53
2022/04/07 04:16:21;;;;;;;82.00;13.53;;;;;;;;;;5006915;28;20289;-53
2022/04/07 04:18:47;;;;;;;73.50;12.03;;;;;;;;;;5005605;28;20821;-53
2022/04/07 04:21:13;;;;;;;79.13;12.77;;;;;;;;;;5009817;28;20222;-53
2022/04/07 04:23:40;;;;;;;56.83;9.60;;;;;;;;;;5013112;28;20199;-53
2022/04/07 04:26:06;;;;;;;75.43;12.10;;;;;;;;;;5009033;28;20297;-54
2022/04/07 04:28:32;;;;;;;81.30;12.87;;;;;;;;;;5005087;28;20196;-54
2022/04/07 04:30:58;;;;;;;66.73;11.17;;;;;;;;;;5011525;28;20176;-53
2022/04/07 04:33:24;;;;;;;71.33;11.83;;;;;;;;;;5013650;28;20188;-53
2022/04/07 04:35:50;;;;;;;74.50;12.37;;;;;;;;;;5012537;28;20218;-53
2022/04/07 04:38:16;;;;;;;66.47;11.00;;;;;;;;;;5014295;28;20200;-54
2022/04/07 04:40:42;;;;;;;87.73;14.00;;;;;;;;;;5007776;28;20650;-53
2022/04/07 04:43:08;;;;;;;127.50;20.43;;;;;;;;;;5008364;28;20660;-54
2022/04/07 04:45:34;;;;;;;68.73;11.50;;;;;;;;;;5007474;28;20231;-53
2022/04/07 04:48:02;;;;;;;70.90;11.60;;;;;;;;;;5012851;28;20322;-53
2022/04/07 04:50:28;;;;;;;74.90;12.40;;;;;;;;;;5013445;28;20608;-53
2022/04/07 04:52:54;;;;;;;45.50;7.77;;;;;;;;;;5022923;28;20246;-53
2022/04/07 04:55:20;;;;;;;47.73;8.17;;;;;;;;;;5018693;28;20216;-53
2022/04/07 04:57:46;;;;;;;121.00;18.97;;;;;;;;;;5016651;28;20238;-54
2022/04/07 05:00:12;;;;;;;107.37;17.23;;;;;;;;;;5013147;28;20212;-54
2022/04/07 05:02:39;;;;;;;96.77;15.70;;;;;;;;;;5017865;28;20203;-53
2022/04/07 05:05:06;;;;;;;109.97;18.00;;;;;;;;;;5013980;28;20321;-53
2022/04/07 05:07:32;;;;;;;103.33;16.90;;;;;;;;;;5013620;28;20306;-53
2022/04/07 05:09:58;;;;;;;62.47;10.43;;;;;;;;;;5018978;28;20184;-54
2022/04/07 05:12:26;;;;;;;76.43;12.50;;;;;;;;;;5020628;28;20180;-53
2022/04/07 05:14:52;;;;;;;57.70;9.80;;;;;;;;;;5013468;28;20212;-54
2022/04/07 05:17:19;;;;;;;89.30;14.87;;;;;;;;;;5014349;28;20181;-54
2022/04/07 05:19:45;;;;;;;158.87;25.30;;;;;;;;;;5007311;28;20192;-54
2022/04/07 05:22:11;;;;;;;81.90;13.43;;;;;;;;;;5010987;28;20195;-54
2022/04/07 05:24:37;;;;;;;90.13;14.43;;;;;;;;;;5013310;28;20196;-54
2022/04/07 05:27:03;;;;;;;137.60;20.93;;;;;;;;;;5017234;28;20761;-53
2022/04/07 05:29:29;;;;;;;91.53;14.77;;;;;;;;;;5017092;28;20267;-53
2022/04/07 05:31:55;;;;;;;119.10;19.50;;;;;;;;;;5007047;28;20269;-53
2022/04/07 05:34:21;;;;;;;127.00;19.77;;;;;;;;;;5008839;28;20299;-54
2022/04/07 05:36:47;;;;;;;85.47;13.60;;;;;;;;;;5008043;28;20812;-54
2022/04/07 05:39:13;;;;;;;92.30;15.20;;;;;;;;;;5010118;28;20180;-54
2022/04/07 05:41:39;;;;;;;125.33;19.53;;;;;;;;;;5009342;28;20807;-53
2022/04/07 05:44:05;;;;;;;172.53;27.17;;;;;;;;;;4985769;28;20279;-53
2022/04/07 05:46:31;;;;;;;176.30;28.60;;;;;;;;;;4997271;28;20425;-53
2022/04/07 05:48:57;;;;;;;93.15;16.85;;;;;;;;;;5010654;28;20429;-54
2022/04/07 05:51:23;;;;;;;106.40;17.80;;;;;;;;;;5002868;28;20180;-52
2022/04/07 05:53:49;;;;;;;210.40;35.07;;;;;;;;;;5007824;28;20185;-52
2022/04/07 05:56:15;;;;;;;132.07;22.13;;;;;;;;;;4983408;28;20207;-52
2022/04/07 05:58:41;;;;;;;140.93;22.80;;;;;;;;;;5005210;28;20299;-52
2022/04/07 06:01:07;;;;;;;69.17;12.20;;;;;;;;;;5006582;28;20188;-52
2022/04/07 06:03:33;;;;;;;104.07;17.23;;;;;;;;;;5019708;28;20230;-52
2022/04/07 06:05:59;;;;;;;82.77;13.90;;;;;;;;;;5011725;28;20215;-52
2022/04/07 06:08:25;;;;;;;46.50;8.37;;;;;;;;;;5008118;28;20184;-52
2022/04/07 06:10:51;;;;;;;106.93;17.17;;;;;;;;;;5009969;28;20764;-52
2022/04/07 06:13:17;;;;;;;74.60;12.60;;;;;;;;;;5018466;28;20334;-54
2022/04/07 06:15:43;;;;;;;151.30;24.27;;;;;;;;;;5007633;28;20239;-52
2022/04/07 06:18:09;;;;;;;48.50;8.70;;;;;;;;;;5009068;28;20299;-53
2022/04/07 06:20:35;;;;;;;95.97;16.10;;;;;;;;;;5007341;28;20252;-53
2022/04/07 06:23:01;;;;;;;93.17;15.40;;;;;;;;;;5015950;28;20210;-51
2022/04/07 06:25:27;;;;;;;106.23;17.83;;;;;;;;;;5017279;28;20314;-51
2022/04/07 06:27:53;;;;;;;142.53;23.93;;;;;;;;;;5004951;28;20199;-53
2022/04/07 06:30:20;;;;;;;93.70;16.13;;;;;;;;;;5006023;28;21762;-53
2022/04/07 06:32:46;;;;;;;158.80;25.80;;;;;;;;;;5004539;28;20221;-53
2022/04/07 06:35:13;;;;;;;97.30;16.70;;;;;;;;;;5006124;28;20223;-52
2022/04/07 06:37:49;;;;;;;158.00;26.27;;;;;;;;;;5018445;28;20184;-53
2022/04/07 06:40:15;;;;;;;122.47;20.03;;;;;;;;;;5018163;28;20176;-53
2022/04/07 06:42:41;;;;;;;78.10;13.50;;;;;;;;;;5012886;28;20177;-53
2022/04/07 06:45:07;;;;;;;127.63;21.40;;;;;;;;;;5007350;28;21725;-52
2022/04/07 06:47:38;;;;;;;97.00;16.53;;;;;;;;;;5022740;28;20196;-53
2022/04/07 06:50:04;;;;;;;170.97;28.43;;;;;;;;;;4999703;28;20710;-53
2022/04/07 06:52:30;;;;;;;130.87;22.10;;;;;;;;;;5008112;28;20192;-53
2022/04/07 06:54:56;;;;;;;139.10;23.47;;;;;;;;;;5005072;28;20282;-53
2022/04/07 06:57:22;;;;;;;190.50;32.53;;;;;;;;;;5003359;28;20263;-53
2022/04/07 06:59:48;;;;;;;73.30;12.70;;;;;;;;;;5003980;28;20240;-53
2022/04/07 07:02:14;;;;;;;141.80;24.13;;;;;;;;;;5009880;28;20189;-52
2022/04/07 07:04:40;;;;;;;148.47;24.03;;;;;;;;;;4996307;28;20211;-53
2022/04/07 07:07:06;;;;;;;87.90;15.33;;;;;;;;;;5010642;28;20208;-52
2022/04/07 07:09:32;;;;;;;83.50;14.47;;;;;;;;;;5018634;28;20775;-53
2022/04/07 07:11:58;;;;;;;130.77;22.50;;;;;;;;;;5017190;28;20189;-53
2022/04/07 07:14:24;;;;;;;135.53;23.23;;;;;;;;;;5010499;28;20204;-54
2022/04/07 07:16:50;;;;;;;77.40;13.70;;;;;;;;;;5018200;28;20570;-53
2022/04/07 07:19:18;;;;;;;106.37;17.77;;;;;;;;;;5014247;28;20185;-52
2022/04/07 07:21:44;;;;;;;172.87;28.87;;;;;;;;;;5009640;28;21367;-53
2022/04/07 07:24:10;;;;;;;42.27;7.83;;;;;;;;;;5023906;28;20194;-53
2022/04/07 07:26:36;;;;;;;44.17;7.97;;;;;;;;;;5017204;28;20379;-52
2022/04/07 07:29:02;;;;;;;67.93;12.00;;;;;;;;;;5015477;28;20315;-53
2022/04/07 07:31:30;;;;;;;128.77;22.23;;;;;;;;;;5020765;28;20181;-52
2022/04/07 07:33:56;;;;;;;85.63;15.20;;;;;;;;;;5018266;28;20192;-52
2022/04/07 07:36:21;;;;;;;110.37;19.10;;;;;;;;;;5005998;28;20584;-53
2022/04/07 07:38:47;;;;;;;125.70;21.77;;;;;;;;;;5008970;28;20184;-53
2022/04/07 07:41:13;;;;;;;65.83;12.07;;;;;;;;;;5013825;28;20208;-52
2022/04/07 07:43:39;;;;;;;79.40;13.63;;;;;;;;;;5008735;28;20189;-53
2022/04/07 07:46:05;;;;;;;78.97;13.80;;;;;;;;;;5002592;28;20719;-53
2022/04/07 07:48:31;;;;;;;117.87;20.63;;;;;;;;;;5010964;28;20188;-53
2022/04/07 07:50:58;;;;;;;97.33;17.47;;;;;;;;;;5000334;28;20181;-53
2022/04/07 07:53:24;;;;;;;95.60;17.03;;;;;;;;;;5002355;28;20192;-53
2022/04/07 07:55:50;;;;;;;86.07;15.03;;;;;;;;;;5010132;28;20212;-53
2022/04/07 07:58:17;;;;;;;167.97;27.63;;;;;;;;;;5015550;28;20708;-53
2022/04/07 08:00:43;;;;;;;149.90;25.23;;;;;;;;;;5009243;28;20196;-52
2022/04/07 08:03:09;;;;;;;175.17;32.03;;;;;;;;;;5004940;28;20194;-53
2022/04/07 08:05:38;;;;;;;149.70;25.40;;;;;;;;;;5011797;28;20232;-53
2022/04/07 08:08:05;;;;;;;94.47;16.13;;;;;;;;;;5007059;28;20220;-52
2022/04/07 08:10:31;;;;;;;38.33;6.97;;;;;;;;;;5024078;28;20555;-52
2022/04/07 08:12:57;;;;;;;37.87;6.97;;;;;;;;;;5033271;28;20204;-52
2022/04/07 08:15:24;;;;;;;48.77;8.90;;;;;;;;;;5032655;28;20208;-52
2022/04/07 08:17:50;;;;;;;41.60;7.87;;;;;;;;;;5033069;28;20521;-52
2022/04/07 08:20:17;;;;;;;38.33;7.03;;;;;;;;;;5032749;28;20628;-52
2022/04/07 08:22:43;;;;;;;51.27;9.03;;;;;;;;;;5032464;28;20169;-52
2022/04/07 08:25:10;;;;;;;46.23;8.33;;;;;;;;;;5032854;28;20217;-53
2022/04/07 08:27:36;;;;;;;131.47;22.27;;;;;;;;;;5025019;22;23101;-65
2022/04/07 08:30:02;;;;;;;134.93;22.70;;;;;;;;;;4993594;28;20185;-64
2022/04/07 08:32:31;;;;;;;91.17;16.03;;;;;;;;;;4994234;28;20178;-64
2022/04/07 08:34:58;;;;;;;138.53;24.20;;;;;;;;;;4996912;28;20832;-65
2022/04/07 08:37:24;;;;;;;67.83;12.30;;;;;;;;;;4995067;28;20716;-65
2022/04/07 08:39:51;;;;;;;92.50;16.33;;;;;;;;;;4997386;28;20189;-65
2022/04/07 08:42:22;;;;;;;202.03;33.63;;;;;;;;;;5006726;28;20181;-66
2022/04/07 08:44:48;;;;;;;67.10;12.23;;;;;;;;;;5001513;28;20756;-66
2022/04/07 08:47:18;;;;;;;55.83;10.10;;;;;;;;;;4996862;28;20603;-66
2022/04/07 08:49:44;;;;;;;114.97;19.70;;;;;;;;;;4996615;28;20681;-66
2022/04/07 08:52:10;;;;;;;90.23;16.50;;;;;;;;;;5017752;28;20216;-66
2022/04/07 08:54:37;;;;;;;131.07;22.87;;;;;;;;;;4998871;28;20256;-67
2022/04/07 08:57:03;;;;;;;229.10;39.50;;;;;;;;;;4979998;28;20209;-67
2022/04/07 08:59:30;;;;;;;193.30;32.70;;;;;;;;;;4975464;28;20212;-68
2022/04/07 09:02:03;;;;;;;70.37;13.10;;;;;;;;;;5013173;28;20383;-66
2022/04/07 09:04:30;;;;;;;74.43;13.73;;;;;;;;;;5006891;28;20180;-67
2022/04/07 09:06:56;;;;;;;63.23;11.90;;;;;;;;;;5005331;28;20191;-66
2022/04/07 09:09:22;;;;;;;56.20;10.87;;;;;;;;;;5011689;28;20219;-66
2022/04/07 09:11:54;;;;;;;109.73;19.43;;;;;;;;;;4996052;28;20199;-66
2022/04/07 09:14:21;;;;;;;78.37;13.93;;;;;;;;;;5000076;28;20196;-66
2022/04/07 09:16:48;;;;;;;142.43;25.20;;;;;;;;;;4977519;28;20180;-66
2022/04/07 09:19:14;;;;;;;179.47;31.17;;;;;;;;;;5010951;28;20205;-66
2022/04/07 09:21:40;;;;;;;170.27;30.70;;;;;;;;;;4974661;28;20248;-67
2022/04/07 09:24:07;;;;;;;81.03;15.17;;;;;;;;;;4986366;28;20181;-66
2022/04/07 09:26:39;;;;;;;140.23;25.10;;;;;;;;;;4986485;28;21547;-67
2022/04/07 09:29:09;;;;;;;175.63;31.10;;;;;;;;;;4992079;28;20220;-66
2022/04/07 09:31:51;;;;;;;87.27;16.03;;;;;;;;;;4994761;28;20211;-67
2022/04/07 09:34:29;;;;;;;88.97;15.90;;;;;;;;;;5007943;28;20196;-66
2022/04/07 09:37:07;;;;;;;51.67;9.60;;;;;;;;;;4983521;28;20234;-66
2022/04/07 09:39:44;;;;;;;52.20;10.03;;;;;;;;;;5004495;28;20725;-66
2022/04/07 09:42:20;;;;;;;144.10;25.40;;;;;;;;;;4995747;28;20183;-72
2022/04/07 09:44:51;;;;;;;58.10;10.88;;;;;;;;;;5005406;28;20270;-66
2022/04/07 09:47:17;;;;;;;53.70;10.15;;;;;;;;;;5001654;28;20264;-66
2022/04/07 09:49:43;;;;;;;75.03;13.93;;;;;;;;;;4997733;28;20327;-69
2022/04/07 09:52:11;;;;;;;169.97;30.10;;;;;;;;;;4979363;28;20463;-70
2022/04/07 09:54:40;;;;;;;81.97;15.23;;;;;;;;;;4996144;28;20211;-70
2022/04/07 09:57:09;;;;;;;197.82;34.45;;;;;;;;;;4985519;28;20180;-69
2022/04/07 09:59:36;;;;;;;190.40;33.73;;;;;;;;;;4977029;28;20204;-69
2022/04/07 10:02:02;;;;;;;246.30;45.65;;;;;;;;;;4972856;28;20193;-66
2022/04/07 10:04:28;;;;;;;169.87;30.57;;;;;;;;;;4979064;28;20197;-66
2022/04/07 10:06:55;;;;;;;154.40;27.47;;;;;;;;;;4983485;28;20181;-67
2022/04/07 10:09:22;;;;;;;124.07;22.37;;;;;;;;;;5003024;28;20212;-67
2022/04/07 10:11:49;;;;;;;166.27;29.60;;;;;;;;;;4978526;28;20271;-67
2022/04/07 10:14:21;;;;;;;71.00;13.07;;;;;;;;;;4988896;28;20189;-66
2022/04/07 10:16:47;;;;;;;139.00;23.77;;;;;;;;;;4988542;28;20264;-67
2022/04/07 10:19:17;;;;;;;240.13;44.33;;;;;;;;;;4989224;28;20218;-67
2022/04/07 10:21:56;;;;;;;146.37;25.80;;;;;;;;;;4984384;28;20192;-68
2022/04/07 10:24:36;;;;;;;126.18;23.58;;;;;;;;;;4987679;28;20189;-66
2022/04/07 10:27:03;;;;;;;100.17;18.90;;;;;;;;;;4992606;28;20215;-66
2022/04/07 10:29:29;;;;;;;108.97;19.55;;;;;;;;;;4994569;28;20729;-67
2022/04/07 10:32:11;;;;;;;130.07;24.20;;;;;;;;;;5003042;28;20183;-66
2022/04/07 10:34:37;;;;;;;65.70;12.00;;;;;;;;;;4999193;28;20312;-66
2022/04/07 10:37:05;;;;;;;94.53;17.07;;;;;;;;;;4992805;28;20181;-65
2022/04/07 10:39:34;;;;;;;87.50;15.95;;;;;;;;;;4992982;28;20206;-66
2022/04/07 10:42:00;;;;;;;146.25;26.13;;;;;;;;;;4992001;28;20185;-70
2022/04/07 10:44:27;;;;;;;127.80;22.53;;;;;;;;;;4989966;28;20188;-66
2022/04/07 10:47:06;;;;;;;92.97;17.00;;;;;;;;;;4988783;28;20181;-67
2022/04/07 10:49:33;;;;;;;105.30;19.27;;;;;;;;;;4988329;28;20792;-66
2022/04/07 10:52:00;;;;;;;141.67;25.87;;;;;;;;;;5002009;28;20193;-66
2022/04/07 10:54:28;;;;;;;108.03;19.47;;;;;;;;;;4994091;28;20264;-66
2022/04/07 10:56:59;;;;;;;183.20;31.90;;;;;;;;;;4991481;28;20248;-67
2022/04/07 10:59:30;;;;;;;92.10;16.60;;;;;;;;;;4996062;28;20201;-67
2022/04/07 11:01:57;;;;;;;159.43;28.47;;;;;;;;;;4989308;28;20178;-69
2022/04/07 11:04:23;;;;;;;132.17;22.90;;;;;;;;;;4992078;28;20189;-65
2022/04/07 11:07:16;;;;;;;88.87;16.27;;;;;;;;;;4994089;28;20277;-65
2022/04/07 11:09:45;;;;;;;107.40;18.70;;;;;;;;;;4990142;28;20211;-69
2022/04/07 11:12:12;;;;;;;125.77;22.87;;;;;;;;;;4987383;28;20212;-71
2022/04/07 11:14:38;;;;;;;109.95;19.35;;;;;;;;;;4982288;28;20689;-67
2022/04/07 11:17:08;;;;;;;103.73;19.47;;;;;;;;;;4994748;28;20181;-67
2022/04/07 11:19:38;;;;;;;80.03;14.93;;;;;;;;;;4984737;28;20202;-67
2022/04/07 11:22:09;;;;;;;128.57;23.90;;;;;;;;;;5004948;28;21532;-67
2022/04/07 11:24:42;;;;;;;87.93;16.57;;;;;;;;;;4998212;28;20195;-66
2022/04/07 11:27:26;;;;;;;158.68;29.50;;;;;;;;;;4995094;28;20216;-66
2022/04/07 11:30:06;;;;;;;113.75;21.52;;;;;;;;;;4995333;28;20196;-67
2022/04/07 11:32:32;;;;;;;51.50;9.82;;;;;;;;;;4997783;28;20216;-67
2022/04/07 11:35:11;;;;;;;71.47;13.80;;;;;;;;;;5001205;28;20243;-68
2022/04/07 11:37:41;;;;;;;202.67;38.27;;;;;;;;;;4990454;28;20993;-65
2022/04/07 11:40:07;;;;;;;113.65;21.00;;;;;;;;;;5002638;28;20248;-66
2022/04/07 11:42:33;;;;;;;68.45;13.25;;;;;;;;;;5006064;28;20239;-66
2022/04/07 11:45:00;;;;;;;95.32;18.52;;;;;;;;;;5006463;28;20659;-67
2022/04/07 11:47:34;;;;;;;131.48;24.58;;;;;;;;;;5001133;28;20185;-66
2022/04/07 11:50:07;;;;;;;161.18;30.15;;;;;;;;;;4991688;28;20169;-67
2022/04/07 11:52:34;;;;;;;98.00;18.17;;;;;;;;;;4990395;28;20189;-67
2022/04/07 11:55:01;;;;;;;171.27;31.33;;;;;;;;;;4995696;28;20220;-71
2022/04/07 11:57:30;;;;;;;81.95;14.70;;;;;;;;;;4998472;28;20185;-67
2022/04/07 11:59:57;;;;;;;134.52;24.92;;;;;;;;;;4997972;28;20180;-67
2022/04/07 12:02:24;;;;;;;119.20;22.20;;;;;;;;;;4995889;28;20279;-68
2022/04/07 12:05:03;;;;;;;139.38;26.10;;;;;;;;;;4988475;28;20229;-66
2022/04/07 12:07:29;;;;;;;105.03;19.30;;;;;;;;;;4991937;28;20662;-66
2022/04/07 12:09:56;;;;;;;101.05;18.90;;;;;;;;;;4994381;28;20271;-68
2022/04/07 12:12:23;;;;;;;115.00;21.17;;;;;;;;;;4995173;28;20989;-67
2022/04/07 12:14:49;;;;;;;124.60;22.53;;;;;;;;;;5009412;28;20209;-67
2022/04/07 12:17:15;;;;;;;110.90;20.27;;;;;;;;;;4997914;28;20256;-66
2022/04/07 12:19:47;;;;;;;153.40;26.65;;;;;;;;;;4986648;28;20220;-67
2022/04/07 12:22:14;;;;;;;148.02;26.30;;;;;;;;;;5004406;28;20192;-67
2022/04/07 12:24:40;;;;;;;69.72;12.93;;;;;;;;;;5001535;28;20185;-67
2022/04/07 12:27:08;;;;;;;155.57;28.03;;;;;;;;;;5000491;28;20247;-67
2022/04/07 12:29:34;;;;;;;77.72;14.88;;;;;;;;;;4996059;28;20216;-67
2022/04/07 12:32:06;;;;;;;138.13;25.20;;;;;;;;;;4996388;28;20184;-67
2022/04/07 12:34:32;;;;;;;81.27;15.00;;;;;;;;;;4998027;28;20564;-66
2022/04/07 12:36:58;;;;;;;84.73;15.83;;;;;;;;;;4996127;28;20197;-68
2022/04/07 12:39:27;;;;;;;111.67;19.73;;;;;;;;;;4994018;28;20243;-67
2022/04/07 12:42:02;;;;;;;75.72;14.35;;;;;;;;;;4999468;28;20305;-65
2022/04/07 12:44:33;;;;;;;64.35;12.13;;;;;;;;;;4994730;28;20687;-66
2022/04/07 12:47:01;;;;;;;97.15;18.00;;;;;;;;;;5002955;28;20177;-66
2022/04/07 12:49:32;;;;;;;78.20;14.47;;;;;;;;;;4996509;28;20213;-66
2022/04/07 12:52:04;;;;;;;161.40;28.17;;;;;;;;;;5000624;28;20698;-67
2022/04/07 12:54:30;;;;;;;76.73;14.00;;;;;;;;;;5001667;28;20290;-66
2022/04/07 12:57:15;;;;;;;142.73;26.00;;;;;;;;;;4995856;28;20215;-65
2022/04/07 12:59:42;;;;;;;110.67;19.70;;;;;;;;;;5008212;28;20212;-67
2022/04/07 13:02:08;;;;;;;142.93;25.53;;;;;;;;;;4993223;28;20187;-67
2022/04/07 13:04:46;;;;;;;130.00;23.13;;;;;;;;;;4993285;28;20259;-66
2022/04/07 13:07:12;;;;;;;163.53;28.13;;;;;;;;;;5003643;28;20185;-66
2022/04/07 13:09:38;;;;;;;107.32;19.33;;;;;;;;;;4990443;28;20208;-66
2022/04/07 13:12:04;;;;;;;206.07;37.20;;;;;;;;;;4988858;28;20216;-66
2022/04/07 13:14:31;;;;;;;104.43;19.02;;;;;;;;;;4988359;28;20236;-66
2022/04/07 13:16:57;;;;;;;263.03;46.57;;;;;;;;;;4979619;28;20619;-66
2022/04/07 13:19:23;;;;;;;156.00;26.47;;;;;;;;;;5001333;28;20340;-66
2022/04/07 13:21:49;;;;;;;118.33;21.60;;;;;;;;;;4991254;28;20253;-65
2022/04/07 13:24:16;;;;;;;141.43;24.57;;;;;;;;;;4993160;28;20231;-66
2022/04/07 13:26:44;;;;;;;110.27;19.40;;;;;;;;;;4995270;28;20197;-66
2022/04/07 13:29:10;;;;;;;115.13;20.00;;;;;;;;;;4995909;28;20201;-65
2022/04/07 13:31:36;;;;;;;105.93;18.77;;;;;;;;;;4993071;28;20188;-66
2022/04/07 13:34:03;;;;;;;116.17;21.70;;;;;;;;;;4989729;28;20196;-66
2022/04/07 13:36:29;;;;;;;80.70;14.87;;;;;;;;;;4997117;28;20209;-66
2022/04/07 13:38:55;;;;;;;93.33;16.93;;;;;;;;;;5003877;28;20219;-65
2022/04/07 13:41:21;;;;;;;94.60;17.27;;;;;;;;;;4999571;28;20274;-67
2022/04/07 13:43:47;;;;;;;120.03;21.17;;;;;;;;;;4995155;28;20698;-66
2022/04/07 13:46:13;;;;;;;96.50;17.40;;;;;;;;;;4991495;28;20271;-67
2022/04/07 13:48:39;;;;;;;109.63;19.67;;;;;;;;;;4998122;28;20303;-66
2022/04/07 13:51:05;;;;;;;158.97;28.00;;;;;;;;;;5003070;28;20666;-66
2022/04/07 13:53:32;;;;;;;139.77;24.53;;;;;;;;;;4999692;28;20189;-66
2022/04/07 13:55:58;;;;;;;197.37;34.63;;;;;;;;;;4994129;28;20303;-65
2022/04/07 13:58:24;;;;;;;63.30;11.97;;;;;;;;;;5017840;28;20211;-66
2022/04/07 14:00:50;;;;;;;86.97;15.63;;;;;;;;;;5002628;28;20209;-65
2022/04/07 14:03:16;;;;;;;127.63;22.00;;;;;;;;;;4997564;28;20177;-65
2022/04/07 14:05:43;;;;;;;91.57;16.53;;;;;;;;;;4991579;28;20201;-66
2022/04/07 14:08:13;;;;;;;126.87;22.63;;;;;;;;;;4993022;28;20205;-65
2022/04/07 14:10:39;;;;;;;83.77;14.60;;;;;;;;;;4994472;28;20189;-66